sensor_id;sensor_type;location;lat;lon;timestamp;P1;durP1;ratioP1;P2;durP2;ratioP2
10201;SDS011;5143;42.584;23.164;2022-08-20T00:00:44;8.77;;;5.33;;
10201;SDS011;5143;42.584;23.164;2022-08-20T00:03:13;7.23;;;4.90;;
10201;SDS011;5143;42.584;23.164;2022-08-20T00:05:44;7.93;;;5.93;;
10201;SDS011;5143;42.584;23.164;2022-08-20T00:08:13;6.30;;;5.33;;
10201;SDS011;5143;42.584;23.164;2022-08-20T00:10:41;7.57;;;4.63;;
10201;SDS011;5143;42.584;23.164;2022-08-20T00:13:12;7.33;;;5.40;;
10201;SDS011;5143;42.584;23.164;2022-08-20T00:15:41;7.87;;;4.93;;
10201;SDS011;5143;42.584;23.164;2022-08-20T00:18:10;6.43;;;5.10;;
10201;SDS011;5143;42.584;23.164;2022-08-20T00:20:39;5.90;;;5.30;;
10201;SDS011;5143;42.584;23.164;2022-08-20T00:23:08;6.23;;;5.50;;
10201;SDS011;5143;42.584;23.164;2022-08-20T00:25:35;8.20;;;4.73;;
10201;SDS011;5143;42.584;23.164;2022-08-20T00:28:02;7.93;;;4.87;;
10201;SDS011;5143;42.584;23.164;2022-08-20T00:30:31;7.10;;;5.20;;
10201;SDS011;5143;42.584;23.164;2022-08-20T00:33:03;7.23;;;5.40;;
10201;SDS011;5143;42.584;23.164;2022-08-20T00:35:32;8.47;;;4.97;;
10201;SDS011;5143;42.584;23.164;2022-08-20T00:38:01;6.40;;;5.50;;
10201;SDS011;5143;42.584;23.164;2022-08-20T00:40:30;7.93;;;5.13;;
10201;SDS011;5143;42.584;23.164;2022-08-20T00:43:01;7.43;;;5.30;;
10201;SDS011;5143;42.584;23.164;2022-08-20T00:45:31;9.60;;;5.50;;
10201;SDS011;5143;42.584;23.164;2022-08-20T00:48:02;7.37;;;5.17;;
10201;SDS011;5143;42.584;23.164;2022-08-20T00:50:30;7.67;;;5.03;;
10201;SDS011;5143;42.584;23.164;2022-08-20T00:52:59;6.23;;;5.13;;
10201;SDS011;5143;42.584;23.164;2022-08-20T00:55:28;9.03;;;5.80;;
10201;SDS011;5143;42.584;23.164;2022-08-20T00:57:57;8.27;;;5.10;;
10201;SDS011;5143;42.584;23.164;2022-08-20T01:00:28;7.20;;;5.60;;
10201;SDS011;5143;42.584;23.164;2022-08-20T01:02:56;7.17;;;5.10;;
10201;SDS011;5143;42.584;23.164;2022-08-20T01:05:27;5.17;;;4.67;;
10201;SDS011;5143;42.584;23.164;2022-08-20T01:07:54;8.40;;;4.83;;
10201;SDS011;5143;42.584;23.164;2022-08-20T01:10:21;9.03;;;5.20;;
10201;SDS011;5143;42.584;23.164;2022-08-20T01:12:52;7.90;;;5.47;;
10201;SDS011;5143;42.584;23.164;2022-08-20T01:15:22;5.80;;;5.20;;
10201;SDS011;5143;42.584;23.164;2022-08-20T01:17:52;5.97;;;5.33;;
10201;SDS011;5143;42.584;23.164;2022-08-20T01:20:24;6.70;;;5.00;;
10201;SDS011;5143;42.584;23.164;2022-08-20T01:22:57;12.60;;;5.80;;
10201;SDS011;5143;42.584;23.164;2022-08-20T01:25:47;7.67;;;5.53;;
10201;SDS011;5143;42.584;23.164;2022-08-20T01:28:19;5.77;;;5.13;;
10201;SDS011;5143;42.584;23.164;2022-08-20T01:30:50;7.93;;;5.47;;
10201;SDS011;5143;42.584;23.164;2022-08-20T01:33:18;9.10;;;6.10;;
10201;SDS011;5143;42.584;23.164;2022-08-20T01:35:45;6.63;;;5.53;;
10201;SDS011;5143;42.584;23.164;2022-08-20T01:38:12;8.67;;;5.83;;
10201;SDS011;5143;42.584;23.164;2022-08-20T01:40:46;10.57;;;5.50;;
10201;SDS011;5143;42.584;23.164;2022-08-20T01:43:23;9.23;;;5.67;;
10201;SDS011;5143;42.584;23.164;2022-08-20T01:45:51;10.50;;;5.83;;
10201;SDS011;5143;42.584;23.164;2022-08-20T01:48:18;8.97;;;5.53;;
10201;SDS011;5143;42.584;23.164;2022-08-20T01:50:50;10.57;;;5.30;;
10201;SDS011;5143;42.584;23.164;2022-08-20T01:53:24;10.23;;;5.90;;
10201;SDS011;5143;42.584;23.164;2022-08-20T01:55:58;7.57;;;5.23;;
10201;SDS011;5143;42.584;23.164;2022-08-20T01:58:26;8.43;;;5.40;;
10201;SDS011;5143;42.584;23.164;2022-08-20T02:00:53;7.70;;;5.43;;
10201;SDS011;5143;42.584;23.164;2022-08-20T02:03:20;11.03;;;5.83;;
10201;SDS011;5143;42.584;23.164;2022-08-20T02:05:48;12.70;;;5.90;;
10201;SDS011;5143;42.584;23.164;2022-08-20T02:08:14;11.70;;;6.07;;
10201;SDS011;5143;42.584;23.164;2022-08-20T02:10:41;9.00;;;6.43;;
10201;SDS011;5143;42.584;23.164;2022-08-20T02:13:13;8.40;;;6.13;;
10201;SDS011;5143;42.584;23.164;2022-08-20T02:15:40;7.37;;;5.83;;
10201;SDS011;5143;42.584;23.164;2022-08-20T02:18:08;7.43;;;5.70;;
10201;SDS011;5143;42.584;23.164;2022-08-20T02:20:37;9.63;;;6.20;;
10201;SDS011;5143;42.584;23.164;2022-08-20T02:23:06;7.97;;;5.83;;
10201;SDS011;5143;42.584;23.164;2022-08-20T02:25:34;8.27;;;6.00;;
10201;SDS011;5143;42.584;23.164;2022-08-20T02:28:04;9.03;;;5.90;;
10201;SDS011;5143;42.584;23.164;2022-08-20T02:30:36;9.33;;;6.13;;
10201;SDS011;5143;42.584;23.164;2022-08-20T02:33:05;8.70;;;5.63;;
10201;SDS011;5143;42.584;23.164;2022-08-20T02:35:35;7.13;;;6.10;;
10201;SDS011;5143;42.584;23.164;2022-08-20T02:38:02;7.20;;;5.57;;
10201;SDS011;5143;42.584;23.164;2022-08-20T02:40:30;8.73;;;5.30;;
10201;SDS011;5143;42.584;23.164;2022-08-20T02:42:57;9.67;;;6.13;;
10201;SDS011;5143;42.584;23.164;2022-08-20T02:45:26;12.07;;;6.00;;
10201;SDS011;5143;42.584;23.164;2022-08-20T02:47:55;10.33;;;5.90;;
10201;SDS011;5143;42.584;23.164;2022-08-20T02:50:23;9.60;;;5.97;;
10201;SDS011;5143;42.584;23.164;2022-08-20T02:52:51;11.07;;;6.33;;
10201;SDS011;5143;42.584;23.164;2022-08-20T02:55:19;11.57;;;6.30;;
10201;SDS011;5143;42.584;23.164;2022-08-20T02:57:47;12.17;;;5.90;;
10201;SDS011;5143;42.584;23.164;2022-08-20T03:00:16;18.23;;;5.83;;
10201;SDS011;5143;42.584;23.164;2022-08-20T03:02:45;8.93;;;6.27;;
10201;SDS011;5143;42.584;23.164;2022-08-20T03:05:14;9.00;;;6.20;;
10201;SDS011;5143;42.584;23.164;2022-08-20T03:07:41;11.20;;;6.50;;
10201;SDS011;5143;42.584;23.164;2022-08-20T03:10:09;11.13;;;6.33;;
10201;SDS011;5143;42.584;23.164;2022-08-20T03:12:39;12.03;;;6.30;;
10201;SDS011;5143;42.584;23.164;2022-08-20T03:15:06;6.73;;;5.97;;
10201;SDS011;5143;42.584;23.164;2022-08-20T03:17:35;9.33;;;6.10;;
10201;SDS011;5143;42.584;23.164;2022-08-20T03:20:03;9.37;;;6.40;;
10201;SDS011;5143;42.584;23.164;2022-08-20T03:22:32;8.97;;;6.30;;
10201;SDS011;5143;42.584;23.164;2022-08-20T03:24:59;11.50;;;6.20;;
10201;SDS011;5143;42.584;23.164;2022-08-20T03:27:26;9.40;;;6.27;;
10201;SDS011;5143;42.584;23.164;2022-08-20T03:29:53;6.23;;;5.63;;
10201;SDS011;5143;42.584;23.164;2022-08-20T03:32:20;15.50;;;6.50;;
10201;SDS011;5143;42.584;23.164;2022-08-20T03:34:47;7.93;;;6.10;;
10201;SDS011;5143;42.584;23.164;2022-08-20T03:37:13;11.40;;;6.57;;
10201;SDS011;5143;42.584;23.164;2022-08-20T03:39:42;8.77;;;6.10;;
10201;SDS011;5143;42.584;23.164;2022-08-20T03:42:08;8.43;;;5.87;;
10201;SDS011;5143;42.584;23.164;2022-08-20T03:44:35;9.07;;;6.50;;
10201;SDS011;5143;42.584;23.164;2022-08-20T03:47:02;14.03;;;7.33;;
10201;SDS011;5143;42.584;23.164;2022-08-20T03:49:32;16.40;;;7.17;;
10201;SDS011;5143;42.584;23.164;2022-08-20T03:51:59;8.03;;;6.57;;
10201;SDS011;5143;42.584;23.164;2022-08-20T03:54:26;14.77;;;6.27;;
10201;SDS011;5143;42.584;23.164;2022-08-20T03:56:54;9.20;;;6.37;;
10201;SDS011;5143;42.584;23.164;2022-08-20T03:59:21;10.90;;;6.73;;
10201;SDS011;5143;42.584;23.164;2022-08-20T04:01:48;7.60;;;6.63;;
10201;SDS011;5143;42.584;23.164;2022-08-20T04:04:16;11.07;;;7.47;;
10201;SDS011;5143;42.584;23.164;2022-08-20T04:06:43;10.17;;;6.60;;
10201;SDS011;5143;42.584;23.164;2022-08-20T04:09:11;8.80;;;6.50;;
10201;SDS011;5143;42.584;23.164;2022-08-20T04:11:38;8.80;;;6.47;;
10201;SDS011;5143;42.584;23.164;2022-08-20T04:14:06;12.70;;;6.23;;
10201;SDS011;5143;42.584;23.164;2022-08-20T04:16:33;10.90;;;6.77;;
10201;SDS011;5143;42.584;23.164;2022-08-20T04:19:01;13.00;;;6.27;;
10201;SDS011;5143;42.584;23.164;2022-08-20T04:21:29;9.67;;;5.77;;
10201;SDS011;5143;42.584;23.164;2022-08-20T04:23:56;12.70;;;5.73;;
10201;SDS011;5143;42.584;23.164;2022-08-20T04:26:23;10.13;;;6.37;;
10201;SDS011;5143;42.584;23.164;2022-08-20T04:28:50;7.50;;;6.53;;
10201;SDS011;5143;42.584;23.164;2022-08-20T04:31:20;8.43;;;6.27;;
10201;SDS011;5143;42.584;23.164;2022-08-20T04:33:49;8.80;;;5.90;;
10201;SDS011;5143;42.584;23.164;2022-08-20T04:36:16;11.63;;;6.13;;
10201;SDS011;5143;42.584;23.164;2022-08-20T04:38:43;12.07;;;5.93;;
10201;SDS011;5143;42.584;23.164;2022-08-20T04:41:09;18.17;;;6.70;;
10201;SDS011;5143;42.584;23.164;2022-08-20T04:43:36;10.60;;;6.53;;
10201;SDS011;5143;42.584;23.164;2022-08-20T04:46:04;11.67;;;7.40;;
10201;SDS011;5143;42.584;23.164;2022-08-20T04:48:35;11.33;;;7.60;;
10201;SDS011;5143;42.584;23.164;2022-08-20T04:51:04;14.93;;;7.30;;
10201;SDS011;5143;42.584;23.164;2022-08-20T04:53:32;15.10;;;7.47;;
10201;SDS011;5143;42.584;23.164;2022-08-20T04:56:00;18.57;;;7.17;;
10201;SDS011;5143;42.584;23.164;2022-08-20T04:58:29;22.67;;;7.17;;
10201;SDS011;5143;42.584;23.164;2022-08-20T05:00:59;21.17;;;7.67;;
10201;SDS011;5143;42.584;23.164;2022-08-20T05:03:28;15.43;;;6.30;;
10201;SDS011;5143;42.584;23.164;2022-08-20T05:05:57;12.47;;;5.97;;
10201;SDS011;5143;42.584;23.164;2022-08-20T05:08:25;7.67;;;5.70;;
10201;SDS011;5143;42.584;23.164;2022-08-20T05:10:53;11.53;;;5.10;;
10201;SDS011;5143;42.584;23.164;2022-08-20T05:13:21;9.57;;;5.60;;
10201;SDS011;5143;42.584;23.164;2022-08-20T05:15:49;7.03;;;4.83;;
10201;SDS011;5143;42.584;23.164;2022-08-20T05:18:16;11.90;;;5.70;;
10201;SDS011;5143;42.584;23.164;2022-08-20T05:20:45;9.73;;;6.13;;
10201;SDS011;5143;42.584;23.164;2022-08-20T05:23:14;11.60;;;7.33;;
10201;SDS011;5143;42.584;23.164;2022-08-20T05:25:44;10.83;;;8.70;;
10201;SDS011;5143;42.584;23.164;2022-08-20T05:28:16;13.50;;;5.38;;
10201;SDS011;5143;42.584;23.164;2022-08-20T05:30:45;6.95;;;4.47;;
10201;SDS011;5143;42.584;23.164;2022-08-20T05:33:14;8.50;;;4.10;;
10201;SDS011;5143;42.584;23.164;2022-08-20T05:35:43;7.95;;;4.40;;
10201;SDS011;5143;42.584;23.164;2022-08-20T05:38:12;6.60;;;4.53;;
10201;SDS011;5143;42.584;23.164;2022-08-20T05:40:43;7.65;;;4.70;;
10201;SDS011;5143;42.584;23.164;2022-08-20T05:43:11;4.95;;;4.22;;
10201;SDS011;5143;42.584;23.164;2022-08-20T05:45:39;11.30;;;4.25;;
10201;SDS011;5143;42.584;23.164;2022-08-20T05:48:07;8.15;;;4.53;;
10201;SDS011;5143;42.584;23.164;2022-08-20T05:50:36;9.05;;;4.40;;
10201;SDS011;5143;42.584;23.164;2022-08-20T05:53:03;8.45;;;4.95;;
10201;SDS011;5143;42.584;23.164;2022-08-20T05:55:32;10.63;;;4.97;;
10201;SDS011;5143;42.584;23.164;2022-08-20T05:58:02;14.05;;;5.65;;
10201;SDS011;5143;42.584;23.164;2022-08-20T06:00:31;10.13;;;4.53;;
10201;SDS011;5143;42.584;23.164;2022-08-20T06:02:59;4.55;;;3.80;;
10201;SDS011;5143;42.584;23.164;2022-08-20T06:05:44;5.53;;;4.55;;
10201;SDS011;5143;42.584;23.164;2022-08-20T06:08:11;6.38;;;4.35;;
10201;SDS011;5143;42.584;23.164;2022-08-20T06:10:39;7.53;;;4.38;;
10201;SDS011;5143;42.584;23.164;2022-08-20T06:13:06;6.43;;;3.80;;
10201;SDS011;5143;42.584;23.164;2022-08-20T06:15:33;8.88;;;3.75;;
10201;SDS011;5143;42.584;23.164;2022-08-20T06:18:00;6.28;;;3.88;;
10201;SDS011;5143;42.584;23.164;2022-08-20T06:20:31;8.25;;;4.70;;
10201;SDS011;5143;42.584;23.164;2022-08-20T06:22:58;5.50;;;3.75;;
10201;SDS011;5143;42.584;23.164;2022-08-20T06:25:25;5.78;;;3.58;;
10201;SDS011;5143;42.584;23.164;2022-08-20T06:27:55;10.52;;;3.90;;
10201;SDS011;5143;42.584;23.164;2022-08-20T06:30:21;10.93;;;4.07;;
10201;SDS011;5143;42.584;23.164;2022-08-20T06:32:49;4.65;;;3.22;;
10201;SDS011;5143;42.584;23.164;2022-08-20T06:35:16;6.03;;;3.60;;
10201;SDS011;5143;42.584;23.164;2022-08-20T06:37:43;7.53;;;3.50;;
10201;SDS011;5143;42.584;23.164;2022-08-20T06:40:11;6.07;;;3.50;;
10201;SDS011;5143;42.584;23.164;2022-08-20T06:42:40;9.15;;;3.97;;
10201;SDS011;5143;42.584;23.164;2022-08-20T06:45:10;10.73;;;3.95;;
10201;SDS011;5143;42.584;23.164;2022-08-20T06:47:40;10.13;;;4.43;;
10201;SDS011;5143;42.584;23.164;2022-08-20T06:50:08;11.70;;;4.60;;
10201;SDS011;5143;42.584;23.164;2022-08-20T06:52:37;13.07;;;10.98;;
10201;SDS011;5143;42.584;23.164;2022-08-20T06:55:05;27.50;;;24.55;;
10201;SDS011;5143;42.584;23.164;2022-08-20T06:57:33;11.27;;;7.22;;
10201;SDS011;5143;42.584;23.164;2022-08-20T07:00:00;6.22;;;3.30;;
10201;SDS011;5143;42.584;23.164;2022-08-20T07:02:28;11.10;;;3.70;;
10201;SDS011;5143;42.584;23.164;2022-08-20T07:04:55;5.95;;;3.65;;
10201;SDS011;5143;42.584;23.164;2022-08-20T07:07:21;6.70;;;3.35;;
10201;SDS011;5143;42.584;23.164;2022-08-20T07:09:48;5.13;;;3.25;;
10201;SDS011;5143;42.584;23.164;2022-08-20T07:12:15;10.55;;;7.50;;
10201;SDS011;5143;42.584;23.164;2022-08-20T07:14:42;7.15;;;4.32;;
10201;SDS011;5143;42.584;23.164;2022-08-20T07:17:09;7.30;;;5.30;;
10201;SDS011;5143;42.584;23.164;2022-08-20T07:19:37;9.07;;;4.57;;
10201;SDS011;5143;42.584;23.164;2022-08-20T07:22:04;7.38;;;3.63;;
10201;SDS011;5143;42.584;23.164;2022-08-20T07:24:31;4.78;;;3.50;;
10201;SDS011;5143;42.584;23.164;2022-08-20T07:26:58;15.40;;;11.10;;
10201;SDS011;5143;42.584;23.164;2022-08-20T07:29:25;10.02;;;5.05;;
10201;SDS011;5143;42.584;23.164;2022-08-20T07:32:12;12.43;;;9.18;;
10201;SDS011;5143;42.584;23.164;2022-08-20T07:34:57;9.35;;;5.68;;
10201;SDS011;5143;42.584;23.164;2022-08-20T07:37:24;10.63;;;3.88;;
10201;SDS011;5143;42.584;23.164;2022-08-20T07:39:51;3.85;;;3.33;;
10201;SDS011;5143;42.584;23.164;2022-08-20T07:42:18;7.68;;;4.15;;
10201;SDS011;5143;42.584;23.164;2022-08-20T07:44:44;7.78;;;3.75;;
10201;SDS011;5143;42.584;23.164;2022-08-20T07:47:11;7.75;;;3.83;;
10201;SDS011;5143;42.584;23.164;2022-08-20T07:49:38;10.23;;;4.63;;
10201;SDS011;5143;42.584;23.164;2022-08-20T07:52:07;6.00;;;3.58;;
10201;SDS011;5143;42.584;23.164;2022-08-20T07:54:33;4.90;;;3.70;;
10201;SDS011;5143;42.584;23.164;2022-08-20T07:57:02;7.60;;;3.80;;
10201;SDS011;5143;42.584;23.164;2022-08-20T07:59:29;7.10;;;3.33;;
10201;SDS011;5143;42.584;23.164;2022-08-20T08:01:57;7.90;;;3.25;;
10201;SDS011;5143;42.584;23.164;2022-08-20T08:04:24;6.47;;;3.83;;
10201;SDS011;5143;42.584;23.164;2022-08-20T08:06:51;9.50;;;3.58;;
10201;SDS011;5143;42.584;23.164;2022-08-20T08:09:21;7.47;;;3.70;;
10201;SDS011;5143;42.584;23.164;2022-08-20T08:11:47;10.43;;;3.88;;
10201;SDS011;5143;42.584;23.164;2022-08-20T08:14:16;8.90;;;3.67;;
10201;SDS011;5143;42.584;23.164;2022-08-20T08:16:47;6.57;;;3.70;;
10201;SDS011;5143;42.584;23.164;2022-08-20T08:19:15;7.70;;;4.10;;
10201;SDS011;5143;42.584;23.164;2022-08-20T08:21:43;11.18;;;4.38;;
10201;SDS011;5143;42.584;23.164;2022-08-20T08:24:11;8.70;;;4.10;;
10201;SDS011;5143;42.584;23.164;2022-08-20T08:26:40;9.02;;;4.55;;
10201;SDS011;5143;42.584;23.164;2022-08-20T08:29:07;8.25;;;4.28;;
10201;SDS011;5143;42.584;23.164;2022-08-20T08:31:33;14.10;;;4.70;;
10201;SDS011;5143;42.584;23.164;2022-08-20T08:34:00;9.57;;;4.25;;
10201;SDS011;5143;42.584;23.164;2022-08-20T08:36:27;9.85;;;4.43;;
10201;SDS011;5143;42.584;23.164;2022-08-20T08:38:54;9.35;;;4.70;;
10201;SDS011;5143;42.584;23.164;2022-08-20T08:41:24;12.48;;;4.53;;
10201;SDS011;5143;42.584;23.164;2022-08-20T08:43:58;7.80;;;4.80;;
10201;SDS011;5143;42.584;23.164;2022-08-20T08:46:30;6.95;;;4.40;;
10201;SDS011;5143;42.584;23.164;2022-08-20T08:48:59;6.43;;;4.10;;
10201;SDS011;5143;42.584;23.164;2022-08-20T08:51:27;6.93;;;4.30;;
10201;SDS011;5143;42.584;23.164;2022-08-20T08:53:59;8.00;;;4.30;;
10201;SDS011;5143;42.584;23.164;2022-08-20T08:56:28;17.73;;;5.38;;
10201;SDS011;5143;42.584;23.164;2022-08-20T08:58:58;20.02;;;6.13;;
10201;SDS011;5143;42.584;23.164;2022-08-20T09:01:28;10.38;;;4.32;;
10201;SDS011;5143;42.584;23.164;2022-08-20T09:04:00;11.30;;;4.63;;
10201;SDS011;5143;42.584;23.164;2022-08-20T09:06:29;10.63;;;4.40;;
10201;SDS011;5143;42.584;23.164;2022-08-20T09:08:57;12.50;;;4.68;;
10201;SDS011;5143;42.584;23.164;2022-08-20T09:11:27;7.97;;;4.70;;
10201;SDS011;5143;42.584;23.164;2022-08-20T09:13:55;10.30;;;4.88;;
10201;SDS011;5143;42.584;23.164;2022-08-20T09:16:24;10.73;;;5.00;;
10201;SDS011;5143;42.584;23.164;2022-08-20T09:18:53;8.75;;;4.20;;
10201;SDS011;5143;42.584;23.164;2022-08-20T09:21:19;16.35;;;4.68;;
10201;SDS011;5143;42.584;23.164;2022-08-20T09:23:46;6.20;;;4.18;;
10201;SDS011;5143;42.584;23.164;2022-08-20T09:26:13;21.35;;;4.10;;
10201;SDS011;5143;42.584;23.164;2022-08-20T09:28:40;7.07;;;4.07;;
10201;SDS011;5143;42.584;23.164;2022-08-20T09:31:06;10.00;;;4.40;;
10201;SDS011;5143;42.584;23.164;2022-08-20T09:33:34;5.18;;;4.15;;
10201;SDS011;5143;42.584;23.164;2022-08-20T09:36:01;8.88;;;4.18;;
10201;SDS011;5143;42.584;23.164;2022-08-20T09:38:29;4.93;;;3.67;;
10201;SDS011;5143;42.584;23.164;2022-08-20T09:40:56;13.60;;;4.57;;
10201;SDS011;5143;42.584;23.164;2022-08-20T09:43:23;9.77;;;4.30;;
10201;SDS011;5143;42.584;23.164;2022-08-20T09:45:50;8.40;;;4.28;;
10201;SDS011;5143;42.584;23.164;2022-08-20T09:48:17;10.48;;;4.43;;
10201;SDS011;5143;42.584;23.164;2022-08-20T09:50:46;7.78;;;4.55;;
10201;SDS011;5143;42.584;23.164;2022-08-20T09:53:14;9.02;;;4.10;;
10201;SDS011;5143;42.584;23.164;2022-08-20T09:55:43;10.82;;;4.30;;
10201;SDS011;5143;42.584;23.164;2022-08-20T09:58:14;7.38;;;4.05;;
10201;SDS011;5143;42.584;23.164;2022-08-20T10:00:45;8.32;;;4.45;;
10201;SDS011;5143;42.584;23.164;2022-08-20T10:03:12;18.83;;;4.45;;
10201;SDS011;5143;42.584;23.164;2022-08-20T10:05:39;7.00;;;4.40;;
10201;SDS011;5143;42.584;23.164;2022-08-20T10:08:08;11.15;;;4.40;;
10201;SDS011;5143;42.584;23.164;2022-08-20T10:10:36;5.80;;;4.22;;
10201;SDS011;5143;42.584;23.164;2022-08-20T10:13:03;12.13;;;4.25;;
10201;SDS011;5143;42.584;23.164;2022-08-20T10:15:30;11.70;;;4.57;;
10201;SDS011;5143;42.584;23.164;2022-08-20T10:17:57;11.63;;;4.28;;
10201;SDS011;5143;42.584;23.164;2022-08-20T10:20:28;12.20;;;4.82;;
10201;SDS011;5143;42.584;23.164;2022-08-20T10:22:55;8.95;;;4.53;;
10201;SDS011;5143;42.584;23.164;2022-08-20T10:25:23;8.40;;;4.30;;
10201;SDS011;5143;42.584;23.164;2022-08-20T10:27:50;9.32;;;5.22;;
10201;SDS011;5143;42.584;23.164;2022-08-20T10:30:16;8.20;;;4.72;;
10201;SDS011;5143;42.584;23.164;2022-08-20T10:32:43;9.60;;;4.43;;
10201;SDS011;5143;42.584;23.164;2022-08-20T10:35:10;5.78;;;4.07;;
10201;SDS011;5143;42.584;23.164;2022-08-20T10:37:37;7.78;;;4.30;;
10201;SDS011;5143;42.584;23.164;2022-08-20T10:40:04;12.40;;;4.40;;
10201;SDS011;5143;42.584;23.164;2022-08-20T10:42:33;6.50;;;4.35;;
10201;SDS011;5143;42.584;23.164;2022-08-20T10:45:00;14.50;;;4.80;;
10201;SDS011;5143;42.584;23.164;2022-08-20T10:47:29;7.20;;;4.20;;
10201;SDS011;5143;42.584;23.164;2022-08-20T10:49:58;8.77;;;4.18;;
10201;SDS011;5143;42.584;23.164;2022-08-20T10:52:26;6.18;;;3.85;;
10201;SDS011;5143;42.584;23.164;2022-08-20T10:54:54;11.85;;;5.03;;
10201;SDS011;5143;42.584;23.164;2022-08-20T10:57:22;7.38;;;4.00;;
10201;SDS011;5143;42.584;23.164;2022-08-20T10:59:53;9.45;;;3.75;;
10201;SDS011;5143;42.584;23.164;2022-08-20T11:02:21;10.35;;;4.20;;
10201;SDS011;5143;42.584;23.164;2022-08-20T11:04:49;4.63;;;3.70;;
10201;SDS011;5143;42.584;23.164;2022-08-20T11:07:17;6.35;;;3.63;;
10201;SDS011;5143;42.584;23.164;2022-08-20T11:09:49;12.02;;;3.90;;
10201;SDS011;5143;42.584;23.164;2022-08-20T11:12:17;9.23;;;4.00;;
10201;SDS011;5143;42.584;23.164;2022-08-20T11:14:46;9.85;;;4.30;;
10201;SDS011;5143;42.584;23.164;2022-08-20T11:17:18;9.90;;;3.65;;
10201;SDS011;5143;42.584;23.164;2022-08-20T11:19:47;12.20;;;3.78;;
10201;SDS011;5143;42.584;23.164;2022-08-20T11:22:13;5.55;;;3.83;;
10201;SDS011;5143;42.584;23.164;2022-08-20T11:24:40;8.63;;;3.60;;
10201;SDS011;5143;42.584;23.164;2022-08-20T11:27:07;6.68;;;4.32;;
10201;SDS011;5143;42.584;23.164;2022-08-20T11:29:35;5.80;;;3.33;;
10201;SDS011;5143;42.584;23.164;2022-08-20T11:32:03;7.13;;;3.63;;
10201;SDS011;5143;42.584;23.164;2022-08-20T11:34:32;9.00;;;3.90;;
10201;SDS011;5143;42.584;23.164;2022-08-20T11:36:59;9.23;;;4.07;;
10201;SDS011;5143;42.584;23.164;2022-08-20T11:39:26;10.77;;;4.05;;
10201;SDS011;5143;42.584;23.164;2022-08-20T11:41:53;8.32;;;3.90;;
10201;SDS011;5143;42.584;23.164;2022-08-20T11:44:20;6.18;;;3.78;;
10201;SDS011;5143;42.584;23.164;2022-08-20T11:46:47;14.40;;;4.78;;
10201;SDS011;5143;42.584;23.164;2022-08-20T11:49:14;7.57;;;4.07;;
10201;SDS011;5143;42.584;23.164;2022-08-20T11:51:42;7.72;;;3.88;;
10201;SDS011;5143;42.584;23.164;2022-08-20T11:54:08;11.00;;;3.78;;
10201;SDS011;5143;42.584;23.164;2022-08-20T11:56:35;9.63;;;4.22;;
10201;SDS011;5143;42.584;23.164;2022-08-20T11:59:02;8.20;;;3.67;;
10201;SDS011;5143;42.584;23.164;2022-08-20T12:01:29;15.05;;;4.38;;
10201;SDS011;5143;42.584;23.164;2022-08-20T12:03:56;10.07;;;4.32;;
10201;SDS011;5143;42.584;23.164;2022-08-20T12:06:23;9.38;;;4.53;;
10201;SDS011;5143;42.584;23.164;2022-08-20T12:08:51;10.57;;;6.28;;
10201;SDS011;5143;42.584;23.164;2022-08-20T12:11:18;18.85;;;9.40;;
10201;SDS011;5143;42.584;23.164;2022-08-20T12:13:45;21.23;;;10.52;;
10201;SDS011;5143;42.584;23.164;2022-08-20T12:16:12;17.42;;;9.23;;
10201;SDS011;5143;42.584;23.164;2022-08-20T12:18:39;21.27;;;12.63;;
10201;SDS011;5143;42.584;23.164;2022-08-20T12:21:06;16.75;;;9.02;;
10201;SDS011;5143;42.584;23.164;2022-08-20T12:23:33;26.05;;;13.75;;
10201;SDS011;5143;42.584;23.164;2022-08-20T12:26:01;27.48;;;13.45;;
10201;SDS011;5143;42.584;23.164;2022-08-20T12:28:28;12.73;;;6.00;;
10201;SDS011;5143;42.584;23.164;2022-08-20T12:30:55;7.68;;;4.90;;
10201;SDS011;5143;42.584;23.164;2022-08-20T12:33:22;8.40;;;4.57;;
10201;SDS011;5143;42.584;23.164;2022-08-20T12:35:49;11.02;;;5.45;;
10201;SDS011;5143;42.584;23.164;2022-08-20T12:38:16;7.43;;;4.80;;
10201;SDS011;5143;42.584;23.164;2022-08-20T12:40:43;9.88;;;5.03;;
10201;SDS011;5143;42.584;23.164;2022-08-20T12:43:11;13.02;;;4.55;;
10201;SDS011;5143;42.584;23.164;2022-08-20T12:45:38;10.70;;;4.60;;
10201;SDS011;5143;42.584;23.164;2022-08-20T12:48:06;10.75;;;6.18;;
10201;SDS011;5143;42.584;23.164;2022-08-20T12:50:35;16.88;;;7.95;;
10201;SDS011;5143;42.584;23.164;2022-08-20T12:53:03;14.98;;;6.88;;
10201;SDS011;5143;42.584;23.164;2022-08-20T12:55:30;14.25;;;5.22;;
10201;SDS011;5143;42.584;23.164;2022-08-20T12:57:59;11.25;;;4.75;;
10201;SDS011;5143;42.584;23.164;2022-08-20T13:00:31;19.50;;;5.60;;
10201;SDS011;5143;42.584;23.164;2022-08-20T13:03:00;11.65;;;4.90;;
10201;SDS011;5143;42.584;23.164;2022-08-20T13:05:28;8.68;;;4.82;;
10201;SDS011;5143;42.584;23.164;2022-08-20T13:07:56;7.78;;;4.35;;
10201;SDS011;5143;42.584;23.164;2022-08-20T13:10:24;8.23;;;4.60;;
10201;SDS011;5143;42.584;23.164;2022-08-20T13:12:53;12.65;;;5.03;;
10201;SDS011;5143;42.584;23.164;2022-08-20T13:15:20;15.27;;;5.35;;
10201;SDS011;5143;42.584;23.164;2022-08-20T13:17:51;10.73;;;5.22;;
10201;SDS011;5143;42.584;23.164;2022-08-20T13:20:19;12.10;;;4.82;;
10201;SDS011;5143;42.584;23.164;2022-08-20T13:22:49;14.30;;;5.38;;
10201;SDS011;5143;42.584;23.164;2022-08-20T13:25:16;11.63;;;5.47;;
10201;SDS011;5143;42.584;23.164;2022-08-20T13:27:43;8.25;;;5.35;;
10201;SDS011;5143;42.584;23.164;2022-08-20T13:30:12;7.93;;;5.03;;
10201;SDS011;5143;42.584;23.164;2022-08-20T13:32:42;12.00;;;6.32;;
10201;SDS011;5143;42.584;23.164;2022-08-20T13:35:11;17.25;;;6.20;;
10201;SDS011;5143;42.584;23.164;2022-08-20T13:37:39;10.80;;;5.80;;
10201;SDS011;5143;42.584;23.164;2022-08-20T13:40:07;9.82;;;6.25;;
10201;SDS011;5143;42.584;23.164;2022-08-20T13:42:35;15.10;;;5.77;;
10201;SDS011;5143;42.584;23.164;2022-08-20T13:45:03;11.33;;;5.67;;
10201;SDS011;5143;42.584;23.164;2022-08-20T13:47:30;15.70;;;6.10;;
10201;SDS011;5143;42.584;23.164;2022-08-20T13:50:00;11.17;;;6.20;;
10201;SDS011;5143;42.584;23.164;2022-08-20T13:52:30;8.97;;;6.40;;
10201;SDS011;5143;42.584;23.164;2022-08-20T13:54:58;8.67;;;6.07;;
10201;SDS011;5143;42.584;23.164;2022-08-20T13:57:25;11.63;;;6.50;;
10201;SDS011;5143;42.584;23.164;2022-08-20T13:59:53;12.40;;;6.50;;
10201;SDS011;5143;42.584;23.164;2022-08-20T14:02:21;12.40;;;6.47;;
10201;SDS011;5143;42.584;23.164;2022-08-20T14:04:49;19.73;;;6.67;;
10201;SDS011;5143;42.584;23.164;2022-08-20T14:07:17;21.17;;;7.33;;
10201;SDS011;5143;42.584;23.164;2022-08-20T14:09:47;13.47;;;7.40;;
10201;SDS011;5143;42.584;23.164;2022-08-20T14:12:16;13.07;;;8.10;;
10201;SDS011;5143;42.584;23.164;2022-08-20T14:14:43;18.70;;;10.50;;
10201;SDS011;5143;42.584;23.164;2022-08-20T14:17:13;32.73;;;13.33;;
10201;SDS011;5143;42.584;23.164;2022-08-20T14:19:42;33.33;;;14.03;;
10201;SDS011;5143;42.584;23.164;2022-08-20T14:22:09;28.70;;;15.97;;
10201;SDS011;5143;42.584;23.164;2022-08-20T14:24:36;23.30;;;13.27;;
10201;SDS011;5143;42.584;23.164;2022-08-20T14:27:04;16.73;;;11.57;;
10201;SDS011;5143;42.584;23.164;2022-08-20T14:29:32;22.30;;;13.20;;
10201;SDS011;5143;42.584;23.164;2022-08-20T14:31:59;18.80;;;13.83;;
10201;SDS011;5143;42.584;23.164;2022-08-20T14:34:26;13.10;;;11.70;;
10201;SDS011;5143;42.584;23.164;2022-08-20T14:36:53;18.33;;;11.70;;
10201;SDS011;5143;42.584;23.164;2022-08-20T14:39:21;12.13;;;10.83;;
10201;SDS011;5143;42.584;23.164;2022-08-20T14:41:49;23.50;;;11.47;;
10201;SDS011;5143;42.584;23.164;2022-08-20T14:44:17;17.37;;;13.10;;
10201;SDS011;5143;42.584;23.164;2022-08-20T14:46:44;17.33;;;13.07;;